createdAt,value
2022-12-05T00:03:31.917Z,84.43
2022-12-05T00:08:34.354Z,78.90
2022-12-05T00:13:36.715Z,85.63
2022-12-05T00:18:39.947Z,93.87
2022-12-05T00:23:43.306Z,103.33
2022-12-05T00:28:46.056Z,83.73
2022-12-05T00:33:49.160Z,84.73
2022-12-05T00:38:52.063Z,79.97
2022-12-05T00:43:58.807Z,83.17
2022-12-05T00:49:03.263Z,82.93
2022-12-05T00:54:09.003Z,81.43
2022-12-05T00:59:19.559Z,90.40
2022-12-05T01:04:24.569Z,77.33
2022-12-05T01:09:27.374Z,78.73
2022-12-05T01:14:29.762Z,85.67
2022-12-05T01:19:33.263Z,80.70
2022-12-05T01:24:36.353Z,94.13
2022-12-05T01:29:38.743Z,86.23
2022-12-05T01:34:41.137Z,91.13
2022-12-05T01:39:43.647Z,82.40
2022-12-05T01:44:49.009Z,89.30
2022-12-05T01:49:51.426Z,86.10
2022-12-05T01:54:58.156Z,78.40
2022-12-05T02:00:10.543Z,83.93
2022-12-05T02:05:25.538Z,81.70
2022-12-05T02:10:30.631Z,75.63
2022-12-05T02:15:44.206Z,78.83
2022-12-05T02:21:08.525Z,74.83
2022-12-05T02:26:35.552Z,83.50
2022-12-05T02:32:01.510Z,79.63
2022-12-05T02:37:18.001Z,80.87
2022-12-05T02:42:41.770Z,84.27
2022-12-05T02:47:51.673Z,85.13
2022-12-05T02:52:58.453Z,78.40
2022-12-05T02:58:05.757Z,88.70
2022-12-05T03:03:21.187Z,96.40
2022-12-05T03:08:27.143Z,78.40
2022-12-05T03:13:41.234Z,81.83
2022-12-05T03:18:51.760Z,80.43
2022-12-05T03:24:00.563Z,86.40
2022-12-05T03:29:25.533Z,75.53
2022-12-05T03:34:55.231Z,83.63
2022-12-05T03:40:23.625Z,78.60
2022-12-05T03:45:39.744Z,84.60
2022-12-05T03:50:46.547Z,94.07
2022-12-05T03:56:03.438Z,95.67
2022-12-05T04:01:08.549Z,91.30
2022-12-05T04:06:30.602Z,86.87
2022-12-05T04:11:37.749Z,97.80
2022-12-05T04:17:03.968Z,88.67
2022-12-05T04:22:07.027Z,94.23
2022-12-05T04:27:30.764Z,82.73
2022-12-05T04:32:53.376Z,85.27
2022-12-05T04:38:02.237Z,84.13
2022-12-05T04:43:06.351Z,80.83
2022-12-05T04:48:14.105Z,86.53
2022-12-05T04:53:17.971Z,97.10
2022-12-05T04:58:23.297Z,95.60
2022-12-05T05:03:31.691Z,86.13
2022-12-05T05:08:34.298Z,97.53
2022-12-05T05:13:36.773Z,97.73
2022-12-05T05:18:39.157Z,98.00
2022-12-05T05:23:41.661Z,107.70
2022-12-05T05:28:44.311Z,90.43
2022-12-05T05:33:51.185Z,121.13
2022-12-05T05:38:56.057Z,127.97
2022-12-05T05:43:59.210Z,117.57
2022-12-05T05:49:01.893Z,96.97
2022-12-05T05:54:04.413Z,101.67
2022-12-05T05:59:06.844Z,88.73
2022-12-05T06:04:09.332Z,90.57
2022-12-05T06:09:12.192Z,98.33
2022-12-05T06:14:14.639Z,88.50
2022-12-05T06:19:17.263Z,98.40
2022-12-05T06:24:19.711Z,88.90
2022-12-05T06:29:25.691Z,81.67
2022-12-05T06:34:29.793Z,86.13
2022-12-05T06:39:32.548Z,85.23
2022-12-05T06:44:34.861Z,88.40
2022-12-05T06:49:38.212Z,90.00
2022-12-05T06:54:40.874Z,89.83
2022-12-05T06:59:43.301Z,81.53
2022-12-05T07:04:45.805Z,84.10
2022-12-05T07:09:54.468Z,79.77
2022-12-05T07:14:56.871Z,85.30
2022-12-05T07:19:59.590Z,98.10
2022-12-05T07:25:02.215Z,86.50
2022-12-05T07:30:06.111Z,91.87
2022-12-05T07:35:08.802Z,77.53
2022-12-05T07:40:11.978Z,120.73
2022-12-05T07:45:14.597Z,82.80
2022-12-05T07:50:17.129Z,95.27
2022-12-05T07:55:19.586Z,84.90
2022-12-05T08:00:22.315Z,76.00
2022-12-05T08:05:24.712Z,85.83
2022-12-05T08:10:27.535Z,76.80
2022-12-05T08:15:29.920Z,71.87
2022-12-05T08:20:35.066Z,71.97
2022-12-05T08:25:37.591Z,74.13
2022-12-05T08:30:40.017Z,76.80
2022-12-05T08:35:42.468Z,74.97
2022-12-05T08:40:47.548Z,79.83
2022-12-05T08:45:53.645Z,80.10
2022-12-05T08:50:56.661Z,74.73
2022-12-05T08:56:06.151Z,68.53
2022-12-05T09:01:17.347Z,92.87
2022-12-05T09:06:22.603Z,76.33
2022-12-05T09:11:28.162Z,65.53
2022-12-05T09:16:38.396Z,64.97
2022-12-05T09:21:43.010Z,65.83
2022-12-05T09:26:45.914Z,65.27
2022-12-05T09:31:51.635Z,65.97
2022-12-05T09:37:10.327Z,76.10
2022-12-05T09:42:31.339Z,72.33
2022-12-05T09:47:45.857Z,70.60
2022-12-05T09:53:04.171Z,80.83
2022-12-05T09:58:20.783Z,95.60
2022-12-05T10:03:43.881Z,87.00
2022-12-05T10:09:11.989Z,77.83
2022-12-05T10:14:45.937Z,76.67
2022-12-05T10:19:52.029Z,96.10
2022-12-05T10:25:03.348Z,72.77
2022-12-05T10:30:16.106Z,67.47
2022-12-05T10:35:20.429Z,69.43
2022-12-05T10:40:23.815Z,76.27
2022-12-05T10:45:26.477Z,68.43
2022-12-05T10:50:32.640Z,71.43
2022-12-05T10:55:41.219Z,69.40
2022-12-05T11:00:51.735Z,77.20
2022-12-05T11:05:57.422Z,79.90
2022-12-05T11:11:19.050Z,117.47
2022-12-05T11:16:32.932Z,93.70
2022-12-05T11:21:42.789Z,114.77
2022-12-05T11:26:45.800Z,81.23
2022-12-05T11:31:52.357Z,74.97
2022-12-05T11:37:04.522Z,81.67
2022-12-05T11:42:25.591Z,86.93
2022-12-05T11:47:36.810Z,87.53
2022-12-05T11:53:02.600Z,82.47
2022-12-05T11:58:29.979Z,96.80
2022-12-05T12:03:35.496Z,80.80
2022-12-05T12:08:53.986Z,83.20
2022-12-05T12:14:33.695Z,77.07
2022-12-05T12:20:02.624Z,79.37
2022-12-05T12:25:20.022Z,73.93
2022-12-05T12:30:28.799Z,74.10
2022-12-05T12:35:44.174Z,86.20
2022-12-05T12:40:58.749Z,76.40
2022-12-05T12:46:22.593Z,73.70
2022-12-05T12:51:25.236Z,70.07
2022-12-05T12:56:45.953Z,82.37
2022-12-05T13:02:03.569Z,83.07
2022-12-05T13:07:35.484Z,78.57
2022-12-05T13:12:39.992Z,72.70
2022-12-05T13:17:45.576Z,77.03
2022-12-05T13:22:51.765Z,107.43
2022-12-05T13:28:03.921Z,127.13
2022-12-05T13:33:09.963Z,119.17
2022-12-05T13:38:41.754Z,106.13
2022-12-05T13:44:04.949Z,98.00
2022-12-05T13:49:26.410Z,94.00
2022-12-05T13:54:31.013Z,94.90
2022-12-05T14:00:05.938Z,105.13
2022-12-05T14:05:25.619Z,170.77
2022-12-05T14:10:27.937Z,147.00
2022-12-05T14:15:39.468Z,223.43
2022-12-05T14:20:49.681Z,184.20
2022-12-05T14:26:32.467Z,182.20
2022-12-05T14:32:04.178Z,118.10
2022-12-05T14:37:14.601Z,175.73
2022-12-05T14:42:21.819Z,133.47
2022-12-05T14:47:28.756Z,218.93
2022-12-05T14:52:32.120Z,133.97
2022-12-05T14:57:41.475Z,128.53
2022-12-05T15:02:46.942Z,205.33
2022-12-05T15:07:51.113Z,181.40
2022-12-05T15:13:14.485Z,194.67
2022-12-05T15:18:35.071Z,179.10
2022-12-05T15:23:44.938Z,152.23
2022-12-05T15:29:08.051Z,191.87
2022-12-05T15:34:25.471Z,186.17
2022-12-05T15:39:28.704Z,242.93
2022-12-05T15:44:37.427Z,182.20
2022-12-05T15:49:40.583Z,185.93
2022-12-05T15:54:44.402Z,113.50
2022-12-05T16:00:13.090Z,93.67
2022-12-05T16:05:30.763Z,138.57
2022-12-05T16:10:34.593Z,152.10
2022-12-05T16:15:45.361Z,174.87
2022-12-05T16:20:50.271Z,157.47
2022-12-05T16:25:52.800Z,174.97
2022-12-05T16:31:03.531Z,157.67
2022-12-05T16:36:13.331Z,124.53
2022-12-05T16:41:17.146Z,147.47
2022-12-05T16:46:39.589Z,136.70
2022-12-05T16:51:45.014Z,131.73
2022-12-05T16:56:47.424Z,122.20
2022-12-05T17:01:49.933Z,110.40
2022-12-05T17:06:52.377Z,310.23
2022-12-05T17:12:05.977Z,156.03
2022-12-05T17:17:13.774Z,198.63
2022-12-05T17:22:16.870Z,204.30
2022-12-05T17:27:20.814Z,256.83
2022-12-05T17:32:24.001Z,379.67
2022-12-05T17:37:26.407Z,195.23
2022-12-05T17:42:28.890Z,154.20
2022-12-05T17:47:31.298Z,190.97
2022-12-05T17:52:33.961Z,178.67
2022-12-05T17:57:36.334Z,206.83
2022-12-05T18:02:38.918Z,145.13
2022-12-05T18:07:43.529Z,179.07
2022-12-05T18:12:46.819Z,151.33
2022-12-05T18:17:49.213Z,168.90
2022-12-05T18:22:51.601Z,168.90
2022-12-05T18:27:54.197Z,156.27
2022-12-05T18:32:56.600Z,150.03
2022-12-05T18:37:58.975Z,138.00
2022-12-05T18:43:01.481Z,155.20
2022-12-05T18:48:23.510Z,177.97
2022-12-05T18:53:26.535Z,147.77
2022-12-05T18:58:29.209Z,159.43
2022-12-05T19:03:33.065Z,151.00
2022-12-05T19:08:35.423Z,133.73
2022-12-05T19:13:37.835Z,138.80
2022-12-05T19:18:41.337Z,139.97
2022-12-05T19:23:43.751Z,145.83
2022-12-05T19:28:46.352Z,181.43
2022-12-05T19:33:51.659Z,166.60
2022-12-05T19:38:55.321Z,200.93
2022-12-05T19:44:01.708Z,155.83
2022-12-05T19:49:07.554Z,183.87
2022-12-05T19:54:12.054Z,161.30
2022-12-05T19:59:16.858Z,149.40
2022-12-05T20:04:19.257Z,127.83
2022-12-05T20:09:22.440Z,132.03
2022-12-05T20:14:25.952Z,141.63
2022-12-05T20:19:28.491Z,189.40
2022-12-05T20:24:30.857Z,157.00
2022-12-05T20:29:33.919Z,211.70
2022-12-05T20:34:36.295Z,202.93
2022-12-05T20:39:38.630Z,222.43
2022-12-05T20:44:41.003Z,175.53
2022-12-05T20:49:43.363Z,171.87
2022-12-05T20:54:46.147Z,206.83
2022-12-05T20:59:48.517Z,198.17
2022-12-05T21:04:50.971Z,190.37
2022-12-05T21:09:53.364Z,172.53
2022-12-05T21:14:56.974Z,181.47
2022-12-05T21:19:59.493Z,163.07
2022-12-05T21:25:02.214Z,178.67
2022-12-05T21:30:05.593Z,198.50
2022-12-05T21:35:08.631Z,204.53
2022-12-05T21:40:11.317Z,210.17
2022-12-05T21:45:13.786Z,159.90
2022-12-05T21:50:16.232Z,161.23
2022-12-05T21:55:18.645Z,177.17
2022-12-05T22:00:21.106Z,181.23
2022-12-05T22:05:23.440Z,193.27
2022-12-05T22:10:25.839Z,188.70
2022-12-05T22:15:28.302Z,176.10
2022-12-05T22:20:30.628Z,176.00
2022-12-05T22:25:33.421Z,198.97
2022-12-05T22:30:35.998Z,271.70
2022-12-05T22:35:38.428Z,276.10
2022-12-05T22:40:40.820Z,226.73
2022-12-05T22:45:43.214Z,215.93
2022-12-05T22:50:55.129Z,150.00
2022-12-05T22:56:14.930Z,159.93
2022-12-05T23:01:28.432Z,143.77
2022-12-05T23:06:32.695Z,153.03
2022-12-05T23:11:35.206Z,150.20
2022-12-05T23:16:37.678Z,177.23
2022-12-05T23:21:40.633Z,153.60
2022-12-05T23:26:45.437Z,160.07
2022-12-05T23:31:47.959Z,174.37
2022-12-05T23:36:52.957Z,135.40
2022-12-05T23:41:55.818Z,181.30
2022-12-05T23:46:58.199Z,200.00
2022-12-05T23:52:00.655Z,189.50
2022-12-05T23:57:03.138Z,149.43
